sensor_id;sensor_type;location;lat;lon;timestamp;temperature;humidity
60860;DHT22;46694;54.382;9.708;2023-04-03T00:01:25;2.70;99.90
60860;DHT22;46694;54.382;9.708;2023-04-03T00:04:07;2.70;99.90
60860;DHT22;46694;54.382;9.708;2023-04-03T00:06:47;2.70;99.90
60860;DHT22;46694;54.382;9.708;2023-04-03T00:09:26;2.70;99.90
60860;DHT22;46694;54.382;9.708;2023-04-03T00:12:06;2.70;99.90
60860;DHT22;46694;54.382;9.708;2023-04-03T00:14:46;2.70;99.90
60860;DHT22;46694;54.382;9.708;2023-04-03T00:17:25;2.70;99.90
60860;DHT22;46694;54.382;9.708;2023-04-03T00:20:05;2.70;99.90
60860;DHT22;46694;54.382;9.708;2023-04-03T00:22:45;2.70;99.90
60860;DHT22;46694;54.382;9.708;2023-04-03T00:25:24;2.70;99.90
60860;DHT22;46694;54.382;9.708;2023-04-03T00:28:04;2.70;99.90
60860;DHT22;46694;54.382;9.708;2023-04-03T00:30:44;2.60;99.90
60860;DHT22;46694;54.382;9.708;2023-04-03T00:33:23;2.60;99.90
60860;DHT22;46694;54.382;9.708;2023-04-03T00:36:08;2.60;99.90
60860;DHT22;46694;54.382;9.708;2023-04-03T00:38:48;2.60;99.90
60860;DHT22;46694;54.382;9.708;2023-04-03T00:41:28;2.60;99.90
60860;DHT22;46694;54.382;9.708;2023-04-03T00:47:24;2.60;99.90
60860;DHT22;46694;54.382;9.708;2023-04-03T00:50:04;2.60;99.90
60860;DHT22;46694;54.382;9.708;2023-04-03T00:52:44;2.60;99.90
60860;DHT22;46694;54.382;9.708;2023-04-03T00:55:25;2.60;99.90
60860;DHT22;46694;54.382;9.708;2023-04-03T00:58:06;2.50;99.90
60860;DHT22;46694;54.382;9.708;2023-04-03T01:00:50;2.50;99.90
60860;DHT22;46694;54.382;9.708;2023-04-03T01:03:35;2.50;99.90
60860;DHT22;46694;54.382;9.708;2023-04-03T01:06:16;2.50;99.90
60860;DHT22;46694;54.382;9.708;2023-04-03T01:09:00;2.50;99.90
60860;DHT22;46694;54.382;9.708;2023-04-03T01:11:39;2.50;99.90
60860;DHT22;46694;54.382;9.708;2023-04-03T01:14:19;2.50;99.90
60860;DHT22;46694;54.382;9.708;2023-04-03T01:16:58;2.50;99.90
60860;DHT22;46694;54.382;9.708;2023-04-03T01:19:41;2.40;99.90
60860;DHT22;46694;54.382;9.708;2023-04-03T01:22:31;2.40;99.90
60860;DHT22;46694;54.382;9.708;2023-04-03T01:25:14;2.40;99.90
60860;DHT22;46694;54.382;9.708;2023-04-03T01:27:54;2.40;99.90
60860;DHT22;46694;54.382;9.708;2023-04-03T01:34:00;2.30;99.90
60860;DHT22;46694;54.382;9.708;2023-04-03T01:36:40;2.30;99.90
60860;DHT22;46694;54.382;9.708;2023-04-03T01:39:20;2.30;99.90
60860;DHT22;46694;54.382;9.708;2023-04-03T01:42:00;2.30;99.90
60860;DHT22;46694;54.382;9.708;2023-04-03T01:44:39;2.20;99.90
60860;DHT22;46694;54.382;9.708;2023-04-03T01:47:19;2.20;99.90
60860;DHT22;46694;54.382;9.708;2023-04-03T01:49:59;2.20;99.90
60860;DHT22;46694;54.382;9.708;2023-04-03T01:52:38;2.20;99.90
60860;DHT22;46694;54.382;9.708;2023-04-03T01:55:18;2.10;99.90
60860;DHT22;46694;54.382;9.708;2023-04-03T01:57:57;2.10;99.90
60860;DHT22;46694;54.382;9.708;2023-04-03T02:00:37;2.10;99.90
60860;DHT22;46694;54.382;9.708;2023-04-03T02:03:17;2.00;99.90
60860;DHT22;46694;54.382;9.708;2023-04-03T02:05:56;2.00;99.90
60860;DHT22;46694;54.382;9.708;2023-04-03T02:08:36;2.00;99.90
60860;DHT22;46694;54.382;9.708;2023-04-03T02:11:15;2.10;99.90
60860;DHT22;46694;54.382;9.708;2023-04-03T02:13:55;2.10;99.90
60860;DHT22;46694;54.382;9.708;2023-04-03T02:16:34;2.10;99.90
60860;DHT22;46694;54.382;9.708;2023-04-03T02:19:14;2.10;99.90
60860;DHT22;46694;54.382;9.708;2023-04-03T02:21:53;2.10;99.90
60860;DHT22;46694;54.382;9.708;2023-04-03T02:24:33;2.10;99.90
60860;DHT22;46694;54.382;9.708;2023-04-03T02:27:13;2.10;99.90
60860;DHT22;46694;54.382;9.708;2023-04-03T02:29:52;2.00;99.90
60860;DHT22;46694;54.382;9.708;2023-04-03T02:32:32;2.00;99.90
60860;DHT22;46694;54.382;9.708;2023-04-03T02:35:11;2.00;99.90
60860;DHT22;46694;54.382;9.708;2023-04-03T02:37:51;1.90;99.90
60860;DHT22;46694;54.382;9.708;2023-04-03T02:40:30;2.00;99.90
60860;DHT22;46694;54.382;9.708;2023-04-03T02:43:10;1.90;99.90
60860;DHT22;46694;54.382;9.708;2023-04-03T02:45:50;1.90;99.90
60860;DHT22;46694;54.382;9.708;2023-04-03T02:48:30;1.80;99.90
60860;DHT22;46694;54.382;9.708;2023-04-03T02:51:09;1.80;99.90
60860;DHT22;46694;54.382;9.708;2023-04-03T02:53:49;1.80;99.90
60860;DHT22;46694;54.382;9.708;2023-04-03T02:56:29;1.80;99.90
60860;DHT22;46694;54.382;9.708;2023-04-03T02:59:09;1.80;99.90
60860;DHT22;46694;54.382;9.708;2023-04-03T03:01:48;1.80;99.90
60860;DHT22;46694;54.382;9.708;2023-04-03T03:04:28;1.80;99.90
60860;DHT22;46694;54.382;9.708;2023-04-03T03:07:07;1.80;99.90
60860;DHT22;46694;54.382;9.708;2023-04-03T03:09:47;1.80;99.90
60860;DHT22;46694;54.382;9.708;2023-04-03T03:12:27;1.80;99.90
60860;DHT22;46694;54.382;9.708;2023-04-03T03:15:07;1.80;99.90
60860;DHT22;46694;54.382;9.708;2023-04-03T03:17:46;1.80;99.90
60860;DHT22;46694;54.382;9.708;2023-04-03T03:20:26;1.70;99.90
60860;DHT22;46694;54.382;9.708;2023-04-03T03:23:09;1.70;99.90
60860;DHT22;46694;54.382;9.708;2023-04-03T03:25:53;1.70;99.90
60860;DHT22;46694;54.382;9.708;2023-04-03T03:28:35;1.70;99.90
60860;DHT22;46694;54.382;9.708;2023-04-03T03:31:15;1.70;99.90
60860;DHT22;46694;54.382;9.708;2023-04-03T03:33:54;1.70;99.90
60860;DHT22;46694;54.382;9.708;2023-04-03T03:36:34;1.70;99.90
60860;DHT22;46694;54.382;9.708;2023-04-03T03:39:13;1.60;99.90
60860;DHT22;46694;54.382;9.708;2023-04-03T03:41:53;1.60;99.90
60860;DHT22;46694;54.382;9.708;2023-04-03T03:44:33;1.60;99.90
60860;DHT22;46694;54.382;9.708;2023-04-03T03:47:12;1.60;99.90
60860;DHT22;46694;54.382;9.708;2023-04-03T03:49:52;1.60;99.90
60860;DHT22;46694;54.382;9.708;2023-04-03T03:52:32;1.60;99.90
60860;DHT22;46694;54.382;9.708;2023-04-03T03:55:11;1.60;99.90
60860;DHT22;46694;54.382;9.708;2023-04-03T03:57:51;1.60;99.90
60860;DHT22;46694;54.382;9.708;2023-04-03T04:00:30;1.60;99.90
60860;DHT22;46694;54.382;9.708;2023-04-03T04:03:10;1.60;99.90
60860;DHT22;46694;54.382;9.708;2023-04-03T04:05:50;1.60;99.90
60860;DHT22;46694;54.382;9.708;2023-04-03T04:08:30;1.60;99.90
60860;DHT22;46694;54.382;9.708;2023-04-03T04:11:09;1.60;99.90
60860;DHT22;46694;54.382;9.708;2023-04-03T04:13:49;1.60;99.90
60860;DHT22;46694;54.382;9.708;2023-04-03T04:16:29;1.60;99.90
60860;DHT22;46694;54.382;9.708;2023-04-03T04:19:08;1.50;99.90
60860;DHT22;46694;54.382;9.708;2023-04-03T04:21:48;1.50;99.90
60860;DHT22;46694;54.382;9.708;2023-04-03T04:24:28;1.50;99.90
60860;DHT22;46694;54.382;9.708;2023-04-03T04:27:08;1.40;99.90
60860;DHT22;46694;54.382;9.708;2023-04-03T04:29:47;1.40;99.90
60860;DHT22;46694;54.382;9.708;2023-04-03T04:32:27;1.30;99.90
60860;DHT22;46694;54.382;9.708;2023-04-03T04:35:07;1.40;99.90
60860;DHT22;46694;54.382;9.708;2023-04-03T04:37:47;1.40;99.90
60860;DHT22;46694;54.382;9.708;2023-04-03T04:40:26;1.40;99.90
60860;DHT22;46694;54.382;9.708;2023-04-03T04:43:06;1.40;99.90
60860;DHT22;46694;54.382;9.708;2023-04-03T04:45:45;1.40;99.90
60860;DHT22;46694;54.382;9.708;2023-04-03T04:48:25;1.40;99.90
60860;DHT22;46694;54.382;9.708;2023-04-03T04:51:05;1.40;99.90
60860;DHT22;46694;54.382;9.708;2023-04-03T04:53:44;1.40;99.90
60860;DHT22;46694;54.382;9.708;2023-04-03T04:56:24;1.40;99.90
60860;DHT22;46694;54.382;9.708;2023-04-03T04:59:04;1.40;99.90
60860;DHT22;46694;54.382;9.708;2023-04-03T05:01:43;1.40;99.90
60860;DHT22;46694;54.382;9.708;2023-04-03T05:04:23;1.40;99.90
60860;DHT22;46694;54.382;9.708;2023-04-03T05:07:02;1.40;99.90
60860;DHT22;46694;54.382;9.708;2023-04-03T05:09:42;1.40;99.90
60860;DHT22;46694;54.382;9.708;2023-04-03T05:12:22;1.40;99.90
60860;DHT22;46694;54.382;9.708;2023-04-03T05:15:01;1.40;99.90
60860;DHT22;46694;54.382;9.708;2023-04-03T05:17:41;1.40;99.90
60860;DHT22;46694;54.382;9.708;2023-04-03T05:20:20;1.50;99.90
60860;DHT22;46694;54.382;9.708;2023-04-03T05:23:00;1.50;99.90
60860;DHT22;46694;54.382;9.708;2023-04-03T05:25:40;1.60;99.90
60860;DHT22;46694;54.382;9.708;2023-04-03T05:28:19;1.60;99.90
60860;DHT22;46694;54.382;9.708;2023-04-03T05:30:59;1.70;99.90
60860;DHT22;46694;54.382;9.708;2023-04-03T05:33:38;1.70;99.90
60860;DHT22;46694;54.382;9.708;2023-04-03T05:36:18;1.80;99.90
60860;DHT22;46694;54.382;9.708;2023-04-03T05:38:57;1.90;99.90
60860;DHT22;46694;54.382;9.708;2023-04-03T05:41:37;2.00;99.90
60860;DHT22;46694;54.382;9.708;2023-04-03T05:44:17;2.20;99.90
60860;DHT22;46694;54.382;9.708;2023-04-03T05:46:56;2.30;99.90
60860;DHT22;46694;54.382;9.708;2023-04-03T05:49:36;2.40;99.90
60860;DHT22;46694;54.382;9.708;2023-04-03T05:52:28;2.40;99.90
60860;DHT22;46694;54.382;9.708;2023-04-03T05:55:09;2.50;99.90
60860;DHT22;46694;54.382;9.708;2023-04-03T05:57:49;2.70;99.90
60860;DHT22;46694;54.382;9.708;2023-04-03T06:00:29;2.80;99.90
60860;DHT22;46694;54.382;9.708;2023-04-03T06:03:09;2.90;99.90
60860;DHT22;46694;54.382;9.708;2023-04-03T06:05:50;3.10;99.90
60860;DHT22;46694;54.382;9.708;2023-04-03T06:08:30;3.20;99.90
60860;DHT22;46694;54.382;9.708;2023-04-03T06:11:10;3.40;99.90
60860;DHT22;46694;54.382;9.708;2023-04-03T06:13:52;3.50;99.90
60860;DHT22;46694;54.382;9.708;2023-04-03T06:16:33;3.70;99.90
60860;DHT22;46694;54.382;9.708;2023-04-03T06:19:13;3.90;99.90
60860;DHT22;46694;54.382;9.708;2023-04-03T06:21:52;4.10;99.90
60860;DHT22;46694;54.382;9.708;2023-04-03T06:24:32;4.30;99.90
60860;DHT22;46694;54.382;9.708;2023-04-03T06:27:12;4.50;99.90
60860;DHT22;46694;54.382;9.708;2023-04-03T06:29:51;4.80;99.90
60860;DHT22;46694;54.382;9.708;2023-04-03T06:32:31;5.00;99.90
60860;DHT22;46694;54.382;9.708;2023-04-03T06:35:11;5.30;99.90
60860;DHT22;46694;54.382;9.708;2023-04-03T06:37:50;5.50;99.90
60860;DHT22;46694;54.382;9.708;2023-04-03T06:40:30;5.80;99.90
60860;DHT22;46694;54.382;9.708;2023-04-03T06:43:10;6.10;99.90
60860;DHT22;46694;54.382;9.708;2023-04-03T06:45:49;6.50;99.90
60860;DHT22;46694;54.382;9.708;2023-04-03T06:48:29;6.80;99.90
60860;DHT22;46694;54.382;9.708;2023-04-03T06:54:00;7.40;99.90
60860;DHT22;46694;54.382;9.708;2023-04-03T06:56:39;7.70;99.90
60860;DHT22;46694;54.382;9.708;2023-04-03T06:59:19;8.10;99.90
60860;DHT22;46694;54.382;9.708;2023-04-03T07:01:58;8.30;99.90
60860;DHT22;46694;54.382;9.708;2023-04-03T07:04:39;8.50;99.90
60860;DHT22;46694;54.382;9.708;2023-04-03T07:07:18;8.90;99.90
60860;DHT22;46694;54.382;9.708;2023-04-03T07:09:58;9.20;99.90
60860;DHT22;46694;54.382;9.708;2023-04-03T07:12:37;9.60;99.90
60860;DHT22;46694;54.382;9.708;2023-04-03T07:15:17;9.90;99.90
60860;DHT22;46694;54.382;9.708;2023-04-03T07:17:57;10.20;99.90
60860;DHT22;46694;54.382;9.708;2023-04-03T07:20:36;10.60;99.90
60860;DHT22;46694;54.382;9.708;2023-04-03T07:23:16;10.90;99.90
60860;DHT22;46694;54.382;9.708;2023-04-03T07:25:55;11.10;99.90
60860;DHT22;46694;54.382;9.708;2023-04-03T07:28:35;11.30;99.90
60860;DHT22;46694;54.382;9.708;2023-04-03T07:31:16;11.60;99.90
60860;DHT22;46694;54.382;9.708;2023-04-03T07:33:57;11.70;99.90
60860;DHT22;46694;54.382;9.708;2023-04-03T07:36:36;12.00;99.90
60860;DHT22;46694;54.382;9.708;2023-04-03T07:39:16;12.10;99.90
60860;DHT22;46694;54.382;9.708;2023-04-03T07:41:56;12.20;99.90
60860;DHT22;46694;54.382;9.708;2023-04-03T07:44:35;12.40;99.90
60860;DHT22;46694;54.382;9.708;2023-04-03T07:47:15;12.60;99.90
60860;DHT22;46694;54.382;9.708;2023-04-03T07:49:57;12.80;99.90
60860;DHT22;46694;54.382;9.708;2023-04-03T07:52:37;13.00;99.90
60860;DHT22;46694;54.382;9.708;2023-04-03T07:55:16;13.20;99.90
60860;DHT22;46694;54.382;9.708;2023-04-03T07:57:56;13.40;99.90
60860;DHT22;46694;54.382;9.708;2023-04-03T08:00:35;13.70;99.90
60860;DHT22;46694;54.382;9.708;2023-04-03T08:03:15;13.90;99.90
60860;DHT22;46694;54.382;9.708;2023-04-03T08:06:04;14.20;99.90
60860;DHT22;46694;54.382;9.708;2023-04-03T08:08:46;14.30;99.90
60860;DHT22;46694;54.382;9.708;2023-04-03T08:11:26;14.20;99.90
60860;DHT22;46694;54.382;9.708;2023-04-03T08:14:05;14.30;99.90
60860;DHT22;46694;54.382;9.708;2023-04-03T08:16:47;14.40;99.90
60860;DHT22;46694;54.382;9.708;2023-04-03T08:19:26;14.40;99.90
60860;DHT22;46694;54.382;9.708;2023-04-03T08:22:06;14.40;99.90
60860;DHT22;46694;54.382;9.708;2023-04-03T08:24:46;14.60;99.90
60860;DHT22;46694;54.382;9.708;2023-04-03T08:27:25;14.90;99.90
60860;DHT22;46694;54.382;9.708;2023-04-03T08:30:06;15.10;99.90
60860;DHT22;46694;54.382;9.708;2023-04-03T08:32:46;15.40;99.90
60860;DHT22;46694;54.382;9.708;2023-04-03T08:35:26;15.60;99.90
60860;DHT22;46694;54.382;9.708;2023-04-03T08:38:06;15.60;99.90
60860;DHT22;46694;54.382;9.708;2023-04-03T08:40:45;15.50;99.90
60860;DHT22;46694;54.382;9.708;2023-04-03T08:44:25;15.80;99.90
60860;DHT22;46694;54.382;9.708;2023-04-03T08:47:27;16.10;99.90
60860;DHT22;46694;54.382;9.708;2023-04-03T08:50:16;16.20;99.90
60860;DHT22;46694;54.382;9.708;2023-04-03T08:52:59;16.50;99.90
60860;DHT22;46694;54.382;9.708;2023-04-03T08:55:45;16.90;99.90
60860;DHT22;46694;54.382;9.708;2023-04-03T08:58:28;17.30;99.90
60860;DHT22;46694;54.382;9.708;2023-04-03T09:01:39;17.80;99.90
60860;DHT22;46694;54.382;9.708;2023-04-03T09:04:18;18.20;99.90
60860;DHT22;46694;54.382;9.708;2023-04-03T09:07:04;18.60;98.80
60860;DHT22;46694;54.382;9.708;2023-04-03T09:09:49;19.00;96.80
60860;DHT22;46694;54.382;9.708;2023-04-03T09:13:19;19.30;95.00
60860;DHT22;46694;54.382;9.708;2023-04-03T09:15:57;19.40;91.60
60860;DHT22;46694;54.382;9.708;2023-04-03T09:18:42;19.20;90.20
60860;DHT22;46694;54.382;9.708;2023-04-03T09:21:37;19.20;87.90
60860;DHT22;46694;54.382;9.708;2023-04-03T09:24:18;19.20;86.00
60860;DHT22;46694;54.382;9.708;2023-04-03T09:27:05;19.30;83.30
60860;DHT22;46694;54.382;9.708;2023-04-03T09:29:47;19.10;80.50
60860;DHT22;46694;54.382;9.708;2023-04-03T09:35:26;18.60;75.10
60860;DHT22;46694;54.382;9.708;2023-04-03T09:41:04;18.10;72.50
60860;DHT22;46694;54.382;9.708;2023-04-03T09:43:54;18.00;71.50
60860;DHT22;46694;54.382;9.708;2023-04-03T09:46:34;18.00;71.20
60860;DHT22;46694;54.382;9.708;2023-04-03T09:49:14;17.80;70.60
60860;DHT22;46694;54.382;9.708;2023-04-03T09:51:53;17.60;69.90
60860;DHT22;46694;54.382;9.708;2023-04-03T09:54:37;17.40;69.80
60860;DHT22;46694;54.382;9.708;2023-04-03T09:57:18;17.30;69.60
60860;DHT22;46694;54.382;9.708;2023-04-03T09:59:59;17.10;69.60
60860;DHT22;46694;54.382;9.708;2023-04-03T10:02:40;16.90;69.90
60860;DHT22;46694;54.382;9.708;2023-04-03T10:05:41;16.90;70.60
60860;DHT22;46694;54.382;9.708;2023-04-03T10:11:15;16.80;69.00
60860;DHT22;46694;54.382;9.708;2023-04-03T10:13:58;16.70;68.70
60860;DHT22;46694;54.382;9.708;2023-04-03T10:16:43;16.70;68.90
60860;DHT22;46694;54.382;9.708;2023-04-03T10:19:42;16.90;68.90
60860;DHT22;46694;54.382;9.708;2023-04-03T10:22:37;17.00;67.90
60860;DHT22;46694;54.382;9.708;2023-04-03T10:31:43;16.90;68.20
60860;DHT22;46694;54.382;9.708;2023-04-03T10:34:37;16.90;68.20
60860;DHT22;46694;54.382;9.708;2023-04-03T10:37:45;16.70;67.50
60860;DHT22;46694;54.382;9.708;2023-04-03T10:40:45;16.50;67.60
60860;DHT22;46694;54.382;9.708;2023-04-03T10:43:50;16.50;67.60
60860;DHT22;46694;54.382;9.708;2023-04-03T10:46:44;16.50;67.60
60860;DHT22;46694;54.382;9.708;2023-04-03T10:57:55;16.40;67.70
60860;DHT22;46694;54.382;9.708;2023-04-03T11:00:46;16.50;67.40
60860;DHT22;46694;54.382;9.708;2023-04-03T11:03:41;16.40;66.10
60860;DHT22;46694;54.382;9.708;2023-04-03T11:06:55;16.30;66.00
60860;DHT22;46694;54.382;9.708;2023-04-03T11:13:22;15.60;64.50
60860;DHT22;46694;54.382;9.708;2023-04-03T11:16:06;15.50;65.20
60860;DHT22;46694;54.382;9.708;2023-04-03T11:18:52;15.20;65.00
60860;DHT22;46694;54.382;9.708;2023-04-03T11:22:03;15.20;65.40
60860;DHT22;46694;54.382;9.708;2023-04-03T11:36:22;14.80;67.80
60860;DHT22;46694;54.382;9.708;2023-04-03T11:39:23;14.80;69.00
60860;DHT22;46694;54.382;9.708;2023-04-03T11:42:33;14.90;69.10
60860;DHT22;46694;54.382;9.708;2023-04-03T11:47:58;14.60;69.10
60860;DHT22;46694;54.382;9.708;2023-04-03T11:53:37;14.10;69.80
60860;DHT22;46694;54.382;9.708;2023-04-03T12:01:57;13.60;70.10
60860;DHT22;46694;54.382;9.708;2023-04-03T12:11:30;12.80;69.00
60860;DHT22;46694;54.382;9.708;2023-04-03T12:14:16;12.60;69.00
60860;DHT22;46694;54.382;9.708;2023-04-03T12:16:57;12.50;69.60
60860;DHT22;46694;54.382;9.708;2023-04-03T12:19:37;12.40;70.60
60860;DHT22;46694;54.382;9.708;2023-04-03T12:22:22;12.40;71.20
60860;DHT22;46694;54.382;9.708;2023-04-03T12:25:47;12.40;72.10
60860;DHT22;46694;54.382;9.708;2023-04-03T12:28:29;12.60;72.90
60860;DHT22;46694;54.382;9.708;2023-04-03T12:31:10;12.70;72.40
60860;DHT22;46694;54.382;9.708;2023-04-03T12:33:59;12.70;72.30
60860;DHT22;46694;54.382;9.708;2023-04-03T12:36:59;12.80;71.70
60860;DHT22;46694;54.382;9.708;2023-04-03T12:46:17;12.60;68.40
60860;DHT22;46694;54.382;9.708;2023-04-03T12:48:58;12.50;68.20
60860;DHT22;46694;54.382;9.708;2023-04-03T12:51:44;12.50;68.50
60860;DHT22;46694;54.382;9.708;2023-04-03T12:54:32;12.40;68.50
60860;DHT22;46694;54.382;9.708;2023-04-03T12:57:20;12.30;68.60
60860;DHT22;46694;54.382;9.708;2023-04-03T13:00:29;12.20;68.80
60860;DHT22;46694;54.382;9.708;2023-04-03T13:03:25;12.00;70.00
60860;DHT22;46694;54.382;9.708;2023-04-03T13:06:17;11.90;70.90
60860;DHT22;46694;54.382;9.708;2023-04-03T13:09:00;11.80;71.70
60860;DHT22;46694;54.382;9.708;2023-04-03T13:11:42;11.70;71.90
60860;DHT22;46694;54.382;9.708;2023-04-03T13:14:24;11.60;72.10
60860;DHT22;46694;54.382;9.708;2023-04-03T13:17:14;11.60;72.30
60860;DHT22;46694;54.382;9.708;2023-04-03T13:19:55;11.50;73.20
60860;DHT22;46694;54.382;9.708;2023-04-03T13:22:36;11.50;73.40
60860;DHT22;46694;54.382;9.708;2023-04-03T13:25:24;11.40;73.30
60860;DHT22;46694;54.382;9.708;2023-04-03T13:28:06;11.40;74.00
60860;DHT22;46694;54.382;9.708;2023-04-03T13:39:35;11.30;74.80
60860;DHT22;46694;54.382;9.708;2023-04-03T13:42:23;11.10;73.90
60860;DHT22;46694;54.382;9.708;2023-04-03T13:48:18;10.90;74.00
60860;DHT22;46694;54.382;9.708;2023-04-03T13:51:04;10.90;73.60
60860;DHT22;46694;54.382;9.708;2023-04-03T13:53:55;10.80;73.00
60860;DHT22;46694;54.382;9.708;2023-04-03T13:56:37;10.80;72.60
60860;DHT22;46694;54.382;9.708;2023-04-03T14:04:48;10.90;73.20
60860;DHT22;46694;54.382;9.708;2023-04-03T14:07:37;10.80;71.70
60860;DHT22;46694;54.382;9.708;2023-04-03T14:10:17;10.60;71.40
60860;DHT22;46694;54.382;9.708;2023-04-03T14:12:57;10.50;71.20
60860;DHT22;46694;54.382;9.708;2023-04-03T14:15:36;10.20;71.30
60860;DHT22;46694;54.382;9.708;2023-04-03T14:18:19;10.10;71.90
60860;DHT22;46694;54.382;9.708;2023-04-03T14:20:59;10.00;72.40
60860;DHT22;46694;54.382;9.708;2023-04-03T14:23:39;10.00;72.70
60860;DHT22;46694;54.382;9.708;2023-04-03T14:26:22;9.90;73.00
60860;DHT22;46694;54.382;9.708;2023-04-03T14:29:03;9.90;73.20
60860;DHT22;46694;54.382;9.708;2023-04-03T14:31:44;9.80;73.60
60860;DHT22;46694;54.382;9.708;2023-04-03T14:34:24;9.70;73.90
60860;DHT22;46694;54.382;9.708;2023-04-03T14:37:05;9.70;74.00
60860;DHT22;46694;54.382;9.708;2023-04-03T14:39:49;9.60;74.30
60860;DHT22;46694;54.382;9.708;2023-04-03T14:42:35;9.60;75.30
60860;DHT22;46694;54.382;9.708;2023-04-03T14:45:16;9.70;76.10
60860;DHT22;46694;54.382;9.708;2023-04-03T14:47:57;9.70;76.20
60860;DHT22;46694;54.382;9.708;2023-04-03T14:50:37;9.60;75.90
60860;DHT22;46694;54.382;9.708;2023-04-03T14:53:18;9.60;75.90
60860;DHT22;46694;54.382;9.708;2023-04-03T14:56:01;9.50;75.40
60860;DHT22;46694;54.382;9.708;2023-04-03T14:58:40;9.30;75.30
60860;DHT22;46694;54.382;9.708;2023-04-03T15:01:20;9.30;75.40
60860;DHT22;46694;54.382;9.708;2023-04-03T15:04:00;9.20;75.20
60860;DHT22;46694;54.382;9.708;2023-04-03T15:06:40;9.10;75.10
60860;DHT22;46694;54.382;9.708;2023-04-03T15:09:23;9.10;74.80
60860;DHT22;46694;54.382;9.708;2023-04-03T15:12:03;9.10;72.80
60860;DHT22;46694;54.382;9.708;2023-04-03T15:14:43;9.00;71.20
60860;DHT22;46694;54.382;9.708;2023-04-03T15:17:23;8.80;69.80
60860;DHT22;46694;54.382;9.708;2023-04-03T15:20:09;8.70;69.30
60860;DHT22;46694;54.382;9.708;2023-04-03T15:22:52;8.70;69.20
60860;DHT22;46694;54.382;9.708;2023-04-03T15:25:32;8.60;68.60
60860;DHT22;46694;54.382;9.708;2023-04-03T15:28:34;8.60;69.20
60860;DHT22;46694;54.382;9.708;2023-04-03T15:31:16;8.60;69.70
60860;DHT22;46694;54.382;9.708;2023-04-03T15:33:55;8.50;69.90
60860;DHT22;46694;54.382;9.708;2023-04-03T15:36:35;8.40;70.00
60860;DHT22;46694;54.382;9.708;2023-04-03T15:39:15;8.30;70.40
60860;DHT22;46694;54.382;9.708;2023-04-03T15:41:55;8.30;70.90
60860;DHT22;46694;54.382;9.708;2023-04-03T15:44:38;8.20;71.20
60860;DHT22;46694;54.382;9.708;2023-04-03T15:47:18;8.20;71.60
60860;DHT22;46694;54.382;9.708;2023-04-03T15:49:58;8.10;72.20
60860;DHT22;46694;54.382;9.708;2023-04-03T15:52:37;8.10;72.80
60860;DHT22;46694;54.382;9.708;2023-04-03T15:55:17;8.00;73.20
60860;DHT22;46694;54.382;9.708;2023-04-03T15:57:57;8.00;73.90
60860;DHT22;46694;54.382;9.708;2023-04-03T16:00:37;7.90;74.40
60860;DHT22;46694;54.382;9.708;2023-04-03T16:03:18;7.90;75.30
60860;DHT22;46694;54.382;9.708;2023-04-03T16:05:58;7.90;75.90
60860;DHT22;46694;54.382;9.708;2023-04-03T16:08:40;7.90;76.40
60860;DHT22;46694;54.382;9.708;2023-04-03T16:11:20;7.90;76.90
60860;DHT22;46694;54.382;9.708;2023-04-03T16:14:00;7.90;77.60
60860;DHT22;46694;54.382;9.708;2023-04-03T16:16:40;7.90;77.20
60860;DHT22;46694;54.382;9.708;2023-04-03T16:19:19;7.80;77.40
60860;DHT22;46694;54.382;9.708;2023-04-03T16:21:59;7.80;77.70
60860;DHT22;46694;54.382;9.708;2023-04-03T16:24:39;7.70;78.00
60860;DHT22;46694;54.382;9.708;2023-04-03T16:27:19;7.70;78.20
60860;DHT22;46694;54.382;9.708;2023-04-03T16:29:59;7.70;78.40
60860;DHT22;46694;54.382;9.708;2023-04-03T16:32:39;7.60;78.40
60860;DHT22;46694;54.382;9.708;2023-04-03T16:35:19;7.50;78.30
60860;DHT22;46694;54.382;9.708;2023-04-03T16:37:59;7.50;78.50
60860;DHT22;46694;54.382;9.708;2023-04-03T16:40:38;7.40;78.70
60860;DHT22;46694;54.382;9.708;2023-04-03T16:43:18;7.40;79.00
60860;DHT22;46694;54.382;9.708;2023-04-03T16:45:58;7.40;79.50
60860;DHT22;46694;54.382;9.708;2023-04-03T16:48:38;7.40;79.80
60860;DHT22;46694;54.382;9.708;2023-04-03T16:51:17;7.30;80.00
60860;DHT22;46694;54.382;9.708;2023-04-03T16:53:58;7.30;80.40
60860;DHT22;46694;54.382;9.708;2023-04-03T16:56:37;7.20;80.90
60860;DHT22;46694;54.382;9.708;2023-04-03T16:59:16;7.20;81.70
60860;DHT22;46694;54.382;9.708;2023-04-03T17:01:56;7.20;82.60
60860;DHT22;46694;54.382;9.708;2023-04-03T17:04:36;7.10;83.10
60860;DHT22;46694;54.382;9.708;2023-04-03T17:07:15;7.10;83.90
60860;DHT22;46694;54.382;9.708;2023-04-03T17:09:55;7.00;84.70
60860;DHT22;46694;54.382;9.708;2023-04-03T17:12:34;7.00;85.40
60860;DHT22;46694;54.382;9.708;2023-04-03T17:15:14;6.90;86.20
60860;DHT22;46694;54.382;9.708;2023-04-03T17:17:54;6.90;86.80
60860;DHT22;46694;54.382;9.708;2023-04-03T17:20:34;6.80;87.40
60860;DHT22;46694;54.382;9.708;2023-04-03T17:23:15;6.80;88.10
60860;DHT22;46694;54.382;9.708;2023-04-03T17:25:54;6.70;88.90
60860;DHT22;46694;54.382;9.708;2023-04-03T17:28:34;6.70;89.60
60860;DHT22;46694;54.382;9.708;2023-04-03T17:31:15;6.70;90.10
60860;DHT22;46694;54.382;9.708;2023-04-03T17:33:54;6.60;90.40
60860;DHT22;46694;54.382;9.708;2023-04-03T17:36:34;6.50;90.60
60860;DHT22;46694;54.382;9.708;2023-04-03T17:39:14;6.50;90.90
60860;DHT22;46694;54.382;9.708;2023-04-03T17:41:54;6.40;91.10
60860;DHT22;46694;54.382;9.708;2023-04-03T17:44:33;6.40;92.20
60860;DHT22;46694;54.382;9.708;2023-04-03T17:47:12;6.40;92.30
60860;DHT22;46694;54.382;9.708;2023-04-03T17:49:52;6.40;92.40
60860;DHT22;46694;54.382;9.708;2023-04-03T17:52:32;6.40;92.50
60860;DHT22;46694;54.382;9.708;2023-04-03T17:55:11;6.40;92.60
60860;DHT22;46694;54.382;9.708;2023-04-03T17:57:53;6.40;92.50
60860;DHT22;46694;54.382;9.708;2023-04-03T18:00:32;6.40;92.70
60860;DHT22;46694;54.382;9.708;2023-04-03T18:03:12;6.40;92.90
60860;DHT22;46694;54.382;9.708;2023-04-03T18:05:52;6.40;93.10
60860;DHT22;46694;54.382;9.708;2023-04-03T18:08:37;6.40;93.20
60860;DHT22;46694;54.382;9.708;2023-04-03T18:11:26;6.30;93.30
60860;DHT22;46694;54.382;9.708;2023-04-03T18:14:07;6.30;93.30
60860;DHT22;46694;54.382;9.708;2023-04-03T18:16:48;6.20;93.30
60860;DHT22;46694;54.382;9.708;2023-04-03T18:19:28;6.10;93.40
60860;DHT22;46694;54.382;9.708;2023-04-03T18:22:12;6.10;93.70
60860;DHT22;46694;54.382;9.708;2023-04-03T18:24:56;6.00;93.90
60860;DHT22;46694;54.382;9.708;2023-04-03T18:27:36;6.00;94.10
60860;DHT22;46694;54.382;9.708;2023-04-03T18:30:16;5.90;94.20
60860;DHT22;46694;54.382;9.708;2023-04-03T18:32:56;5.90;94.40
60860;DHT22;46694;54.382;9.708;2023-04-03T18:35:35;5.90;94.30
60860;DHT22;46694;54.382;9.708;2023-04-03T18:38:15;5.90;94.60
60860;DHT22;46694;54.382;9.708;2023-04-03T18:40:55;5.90;94.40
60860;DHT22;46694;54.382;9.708;2023-04-03T18:43:35;5.80;94.30
60860;DHT22;46694;54.382;9.708;2023-04-03T18:46:14;5.80;94.10